Time;durP1;ratioP1;P1;durP2;ratioP2;P2;SDS_P1;SDS_P2;PMS_P1;PMS_P2;Temp;Humidity;BMP_temperature;BMP_pressure;BME280_temperature;BME280_humidity;BME280_pressure;Samples;Min_cycle;Max_cycle;Signal;HPM_P1;HPM_P2
2022/11/01 00:00:43;;;;;;;0.60;0.60;;;;;;;;;;1796886;77;26718;-54
2022/11/01 00:03:11;;;;;;;0.60;0.60;;;;;;;;;;1801713;77;26267;-55
2022/11/01 00:05:38;;;;;;;0.80;0.80;;;;;;;;;;1805399;77;26505;-52
2022/11/01 00:08:05;;;;;;;0.70;0.70;;;;;;;;;;1795093;77;26274;-50
2022/11/01 00:10:33;;;;;;;0.60;0.60;;;;;;;;;;1803329;77;26348;-54
2022/11/01 00:13:00;;;;;;;0.62;0.62;;;;;;;;;;1797801;77;26279;-53
2022/11/01 00:15:27;;;;;;;0.70;0.70;;;;;;;;;;1803340;77;26274;-49
2022/11/01 00:17:54;;;;;;;0.60;0.60;;;;;;;;;;1799062;77;26327;-50
2022/11/01 00:20:22;;;;;;;0.80;0.80;;;;;;;;;;1806557;77;26278;-50
2022/11/01 00:22:49;;;;;;;0.62;0.62;;;;;;;;;;1805494;77;26411;-55
2022/11/01 00:25:16;;;;;;;0.70;0.70;;;;;;;;;;1796922;77;26346;-49
2022/11/01 00:27:43;;;;;;;0.65;0.65;;;;;;;;;;1808556;77;26584;-49
2022/11/01 00:30:11;;;;;;;0.60;0.60;;;;;;;;;;1803428;77;26254;-53
2022/11/01 00:32:38;;;;;;;0.70;0.70;;;;;;;;;;1814416;77;26263;-51
2022/11/01 00:35:06;;;;;;;0.70;0.70;;;;;;;;;;1796601;77;26276;-57
2022/11/01 00:37:33;;;;;;;0.70;0.70;;;;;;;;;;1795776;77;26578;-51
2022/11/01 00:40:00;;;;;;;0.70;0.70;;;;;;;;;;1788884;77;26273;-53
2022/11/01 00:42:28;;;;;;;0.60;0.60;;;;;;;;;;1810697;77;26271;-47
2022/11/01 00:44:55;;;;;;;0.70;0.70;;;;;;;;;;1807718;77;26386;-54
2022/11/01 00:47:22;;;;;;;0.70;0.70;;;;;;;;;;1794735;77;26323;-56
2022/11/01 00:49:49;;;;;;;0.80;0.80;;;;;;;;;;1799677;77;26261;-51
2022/11/01 00:52:17;;;;;;;0.60;0.60;;;;;;;;;;1807411;77;26255;-48
2022/11/01 00:54:44;;;;;;;0.60;0.60;;;;;;;;;;1800697;77;26339;-51
2022/11/01 00:57:12;;;;;;;0.70;0.70;;;;;;;;;;1792273;77;26313;-55
2022/11/01 00:59:40;;;;;;;0.60;0.60;;;;;;;;;;1804595;77;26364;-49
2022/11/01 01:02:07;;;;;;;0.60;0.60;;;;;;;;;;1790942;77;26565;-56
2022/11/01 01:04:40;;;;;;;0.70;0.70;;;;;;;;;;1805069;77;26270;-51
2022/11/01 01:07:05;;;;;;;0.70;0.70;;;;;;;;;;1811327;77;26358;-52
2022/11/01 01:09:32;;;;;;;0.70;0.70;;;;;;;;;;1803532;77;25225;-55
2022/11/01 01:12:00;;;;;;;0.70;0.70;;;;;;;;;;1801363;77;26257;-51
2022/11/01 01:14:28;;;;;;;0.70;0.70;;;;;;;;;;1811817;77;26266;-48
2022/11/01 01:16:55;;;;;;;0.55;0.55;;;;;;;;;;1805457;77;26259;-50
2022/11/01 01:19:24;;;;;;;0.70;0.70;;;;;;;;;;1802430;77;26290;-47
2022/11/01 01:21:51;;;;;;;0.60;0.60;;;;;;;;;;1805671;77;26337;-51
2022/11/01 01:24:18;;;;;;;0.70;0.70;;;;;;;;;;1801186;77;26254;-53
2022/11/01 01:26:46;;;;;;;0.80;0.80;;;;;;;;;;1798027;77;26388;-52
2022/11/01 01:29:13;;;;;;;0.57;0.57;;;;;;;;;;1806526;77;26274;-48
2022/11/01 01:31:40;;;;;;;0.60;0.60;;;;;;;;;;1799077;77;26336;-48
2022/11/01 01:34:08;;;;;;;0.70;0.70;;;;;;;;;;1801221;77;26381;-51
2022/11/01 01:36:35;;;;;;;0.70;0.70;;;;;;;;;;1802955;77;26853;-55
2022/11/01 01:39:02;;;;;;;0.60;0.60;;;;;;;;;;1797641;77;26726;-53
2022/11/01 01:44:33;;;;;;;0.60;0.60;;;;;;;;;;1805253;77;26275;-53
2022/11/01 01:47:02;;;;;;;0.60;0.60;;;;;;;;;;1788969;77;26293;-53
2022/11/01 01:49:29;;;;;;;0.50;0.50;;;;;;;;;;1810223;77;26267;-52
2022/11/01 01:51:57;;;;;;;0.55;0.55;;;;;;;;;;1803889;77;26258;-55
2022/11/01 01:54:24;;;;;;;0.55;0.55;;;;;;;;;;1802781;77;27189;-52
2022/11/01 01:56:52;;;;;;;0.70;0.70;;;;;;;;;;1800054;77;26329;-51
2022/11/01 01:59:19;;;;;;;0.60;0.60;;;;;;;;;;1801057;77;26826;-51
2022/11/01 02:01:46;;;;;;;0.70;0.70;;;;;;;;;;1785785;77;26277;-56
2022/11/01 02:04:32;;;;;;;0.70;0.70;;;;;;;;;;1791266;77;26281;-51
2022/11/01 02:06:59;;;;;;;0.70;0.70;;;;;;;;;;1815907;77;26262;-53
2022/11/01 02:09:26;;;;;;;0.53;0.53;;;;;;;;;;1802545;77;26265;-56
2022/11/01 02:11:54;;;;;;;0.65;0.65;;;;;;;;;;1805404;77;26732;-51
2022/11/01 02:14:22;;;;;;;0.50;0.50;;;;;;;;;;1795976;77;26805;-52
2022/11/01 02:17:00;;;;;;;0.50;0.50;;;;;;;;;;1803762;77;26747;-49
2022/11/01 02:19:46;;;;;;;0.60;0.60;;;;;;;;;;1803127;77;26286;-52
2022/11/01 02:22:21;;;;;;;0.45;0.45;;;;;;;;;;1800869;77;26744;-50
2022/11/01 02:24:55;;;;;;;0.50;0.50;;;;;;;;;;1801760;77;26345;-49
2022/11/01 02:27:24;;;;;;;0.40;0.40;;;;;;;;;;1803277;77;26269;-52
2022/11/01 02:30:10;;;;;;;0.60;0.60;;;;;;;;;;1804998;77;25864;-51
2022/11/01 02:32:39;;;;;;;0.50;0.50;;;;;;;;;;1809085;77;26783;-55
2022/11/01 02:35:14;;;;;;;0.60;0.60;;;;;;;;;;1797054;77;26384;-54
2022/11/01 02:37:49;;;;;;;0.70;0.70;;;;;;;;;;1799169;77;26360;-53
2022/11/01 02:40:17;;;;;;;0.60;0.60;;;;;;;;;;1799165;77;27367;-56
2022/11/01 02:42:46;;;;;;;0.68;0.68;;;;;;;;;;1774940;77;27598;-51
2022/11/01 02:45:27;;;;;;;0.50;0.50;;;;;;;;;;1802543;77;27685;-53
2022/11/01 02:47:47;;;;;;;0.50;0.50;;;;;;;;;;1792569;77;26341;-53
2022/11/01 02:50:14;;;;;;;0.60;0.60;;;;;;;;;;1793106;77;25744;-49
2022/11/01 02:52:41;;;;;;;0.55;0.55;;;;;;;;;;1804957;77;26275;-50
2022/11/01 02:55:28;;;;;;;0.42;0.42;;;;;;;;;;1800550;77;26261;-55
2022/11/01 02:57:42;;;;;;;0.60;0.60;;;;;;;;;;1794840;77;26290;-54
2022/11/01 03:00:17;;;;;;;0.60;0.60;;;;;;;;;;1806683;77;27374;-48
2022/11/01 03:02:44;;;;;;;0.70;0.70;;;;;;;;;;1798414;77;26308;-52
2022/11/01 03:05:22;;;;;;;0.42;0.40;;;;;;;;;;1807702;77;26453;-53
2022/11/01 03:07:52;;;;;;;0.47;0.47;;;;;;;;;;1804177;77;26258;-51
2022/11/01 03:10:20;;;;;;;0.50;0.50;;;;;;;;;;1802463;77;26277;-53
2022/11/01 03:12:49;;;;;;;0.57;0.57;;;;;;;;;;1795147;77;26697;-49
2022/11/01 03:15:20;;;;;;;0.50;0.50;;;;;;;;;;1797493;77;26263;-52
2022/11/01 03:17:50;;;;;;;0.55;0.55;;;;;;;;;;1799546;77;26274;-53
2022/11/01 03:20:21;;;;;;;0.70;0.70;;;;;;;;;;1802559;77;27528;-54
2022/11/01 03:22:51;;;;;;;0.50;0.50;;;;;;;;;;1796056;77;26277;-52
2022/11/01 03:25:41;;;;;;;0.40;0.40;;;;;;;;;;1797008;77;26329;-53
2022/11/01 03:28:13;;;;;;;0.50;0.50;;;;;;;;;;1806919;77;25642;-49
2022/11/01 03:30:43;;;;;;;0.65;0.65;;;;;;;;;;1790562;77;26269;-54
2022/11/01 03:33:12;;;;;;;0.53;0.53;;;;;;;;;;1794486;77;26380;-55
2022/11/01 03:35:40;;;;;;;0.60;0.60;;;;;;;;;;1800103;77;26347;-54
2022/11/01 03:38:08;;;;;;;0.50;0.50;;;;;;;;;;1807496;77;26333;-53
2022/11/01 03:40:37;;;;;;;0.40;0.40;;;;;;;;;;1810390;77;26743;-52
2022/11/01 03:43:05;;;;;;;0.45;0.45;;;;;;;;;;1796578;77;26244;-51
2022/11/01 03:45:35;;;;;;;0.85;0.40;;;;;;;;;;1811915;77;26202;-51
2022/11/01 03:48:04;;;;;;;0.40;0.40;;;;;;;;;;1800999;77;26271;-54
2022/11/01 03:50:31;;;;;;;0.60;0.60;;;;;;;;;;1801076;77;26318;-52
2022/11/01 03:52:58;;;;;;;0.50;0.50;;;;;;;;;;1802233;77;26262;-51
2022/11/01 03:55:26;;;;;;;0.50;0.50;;;;;;;;;;1799562;77;26665;-49
2022/11/01 03:57:55;;;;;;;0.40;0.40;;;;;;;;;;1801638;77;26254;-51
2022/11/01 04:00:27;;;;;;;0.45;0.45;;;;;;;;;;1801585;77;26767;-56
2022/11/01 04:02:55;;;;;;;0.40;0.40;;;;;;;;;;1801148;77;27468;-49
2022/11/01 04:05:23;;;;;;;0.40;0.40;;;;;;;;;;1810525;77;26309;-50
2022/11/01 04:07:51;;;;;;;0.40;0.40;;;;;;;;;;1808274;77;26294;-49
2022/11/01 04:10:19;;;;;;;0.50;0.50;;;;;;;;;;1790569;77;26329;-51
2022/11/01 04:12:47;;;;;;;0.50;0.50;;;;;;;;;;1804151;77;26191;-52
2022/11/01 04:20:47;;;;;;;0.50;0.50;;;;;;;;;;1800587;77;26351;-51
2022/11/01 04:23:15;;;;;;;0.30;0.30;;;;;;;;;;1800650;77;26376;-52
2022/11/01 04:25:44;;;;;;;0.70;0.70;;;;;;;;;;1809665;77;26254;-47
2022/11/01 04:28:12;;;;;;;0.50;0.50;;;;;;;;;;1801774;77;26341;-51
2022/11/01 04:30:39;;;;;;;0.62;0.62;;;;;;;;;;1791480;77;25953;-53
2022/11/01 04:33:07;;;;;;;0.42;0.42;;;;;;;;;;1807983;77;26316;-52
2022/11/01 04:35:36;;;;;;;0.40;0.40;;;;;;;;;;1803418;77;26257;-49
2022/11/01 04:38:04;;;;;;;0.57;0.57;;;;;;;;;;1806769;77;26223;-55
2022/11/01 04:40:31;;;;;;;0.35;0.35;;;;;;;;;;1797666;77;25807;-54
2022/11/01 04:42:59;;;;;;;0.40;0.40;;;;;;;;;;1799759;77;26297;-52
2022/11/01 04:45:26;;;;;;;0.40;0.40;;;;;;;;;;1794802;77;26269;-53
2022/11/01 04:48:00;;;;;;;0.42;0.42;;;;;;;;;;1803710;77;26420;-53
2022/11/01 04:50:28;;;;;;;0.42;0.42;;;;;;;;;;1809125;77;26309;-52
2022/11/01 04:52:55;;;;;;;0.40;0.40;;;;;;;;;;1793884;77;26325;-54
2022/11/01 04:55:22;;;;;;;0.50;0.40;;;;;;;;;;1799745;77;26361;-56
2022/11/01 04:57:50;;;;;;;0.50;0.50;;;;;;;;;;1794270;77;26293;-51
2022/11/01 05:00:17;;;;;;;0.60;0.60;;;;;;;;;;1805303;76;26263;-53
2022/11/01 05:02:44;;;;;;;0.40;0.40;;;;;;;;;;1803392;77;26276;-51
2022/11/01 05:05:12;;;;;;;0.50;0.50;;;;;;;;;;1798724;77;25880;-51
2022/11/01 05:07:39;;;;;;;0.40;0.40;;;;;;;;;;1795291;77;26286;-56
2022/11/01 05:10:08;;;;;;;0.37;0.37;;;;;;;;;;1799494;77;27558;-52
2022/11/01 05:12:35;;;;;;;0.50;0.50;;;;;;;;;;1808985;77;26336;-51
2022/11/01 05:15:04;;;;;;;0.40;0.40;;;;;;;;;;1809389;77;27205;-50
2022/11/01 05:17:31;;;;;;;0.40;0.40;;;;;;;;;;1795206;77;25632;-51
2022/11/01 05:19:59;;;;;;;0.42;0.42;;;;;;;;;;1796166;77;26793;-51
2022/11/01 05:22:26;;;;;;;0.40;0.40;;;;;;;;;;1804861;77;26337;-50
2022/11/01 05:24:53;;;;;;;0.23;0.23;;;;;;;;;;1800314;77;26220;-52
2022/11/01 05:27:20;;;;;;;0.30;0.30;;;;;;;;;;1803395;77;26282;-50
2022/11/01 05:29:48;;;;;;;0.47;0.47;;;;;;;;;;1801111;77;25762;-56
2022/11/01 05:32:16;;;;;;;0.40;0.40;;;;;;;;;;1804561;77;26410;-50
2022/11/01 05:34:45;;;;;;;0.30;0.30;;;;;;;;;;1808114;77;25738;-54
2022/11/01 05:37:12;;;;;;;0.57;0.40;;;;;;;;;;1800280;77;26348;-51
2022/11/01 05:39:40;;;;;;;0.30;0.30;;;;;;;;;;1813449;77;26719;-50
2022/11/01 05:42:07;;;;;;;0.40;0.40;;;;;;;;;;1799574;77;26316;-56
2022/11/01 05:44:34;;;;;;;0.40;0.40;;;;;;;;;;1800681;77;26539;-51
2022/11/01 05:47:03;;;;;;;0.40;0.40;;;;;;;;;;1800691;77;26724;-53
2022/11/01 05:49:30;;;;;;;0.30;0.30;;;;;;;;;;1799856;77;26784;-51
2022/11/01 05:51:58;;;;;;;0.40;0.40;;;;;;;;;;1809529;77;26247;-52
2022/11/01 05:54:25;;;;;;;0.37;0.37;;;;;;;;;;1798158;77;26742;-56
2022/11/01 05:56:53;;;;;;;0.35;0.35;;;;;;;;;;1806746;77;26699;-50
2022/11/01 05:59:20;;;;;;;0.50;0.50;;;;;;;;;;1801620;77;26306;-49
2022/11/01 06:01:47;;;;;;;0.50;0.50;;;;;;;;;;1802955;77;26361;-53
2022/11/01 06:04:14;;;;;;;0.30;0.30;;;;;;;;;;1801780;77;26310;-56
2022/11/01 06:06:42;;;;;;;0.40;0.40;;;;;;;;;;1797756;77;26752;-51
2022/11/01 06:09:09;;;;;;;0.50;0.50;;;;;;;;;;1805655;77;26266;-54
2022/11/01 06:11:36;;;;;;;0.37;0.37;;;;;;;;;;1796547;77;26359;-48
2022/11/01 06:14:03;;;;;;;0.45;0.45;;;;;;;;;;1804054;77;26845;-53
2022/11/01 06:16:31;;;;;;;0.50;0.50;;;;;;;;;;1799413;77;26331;-54
2022/11/01 06:18:58;;;;;;;0.30;0.30;;;;;;;;;;1794840;77;26293;-53
2022/11/01 06:21:26;;;;;;;0.40;0.40;;;;;;;;;;1791373;77;26782;-52
2022/11/01 06:23:53;;;;;;;0.37;0.37;;;;;;;;;;1780620;77;26269;-53
2022/11/01 06:26:20;;;;;;;0.30;0.30;;;;;;;;;;1808746;77;26676;-53
2022/11/01 06:28:47;;;;;;;0.40;0.40;;;;;;;;;;1805902;77;26251;-52
2022/11/01 06:31:15;;;;;;;0.40;0.40;;;;;;;;;;1809797;77;26323;-51
2022/11/01 06:33:43;;;;;;;0.50;0.50;;;;;;;;;;1805074;77;25350;-51
2022/11/01 06:36:11;;;;;;;0.40;0.40;;;;;;;;;;1798126;77;26282;-53
2022/11/01 06:38:38;;;;;;;0.30;0.30;;;;;;;;;;1799924;77;26218;-54
2022/11/01 06:41:05;;;;;;;0.30;0.30;;;;;;;;;;1805415;77;26320;-50
2022/11/01 06:43:32;;;;;;;0.45;0.45;;;;;;;;;;1801219;77;26289;-53
2022/11/01 06:46:00;;;;;;;0.47;0.47;;;;;;;;;;1799790;77;26322;-52
2022/11/01 06:48:28;;;;;;;0.50;0.50;;;;;;;;;;1810613;77;27299;-56
2022/11/01 06:50:55;;;;;;;0.60;0.60;;;;;;;;;;1798359;77;26266;-53
2022/11/01 06:53:23;;;;;;;0.55;0.55;;;;;;;;;;1805075;77;26260;-56
2022/11/01 06:55:51;;;;;;;0.62;0.62;;;;;;;;;;1806919;77;26330;-53
2022/11/01 06:58:18;;;;;;;0.60;0.60;;;;;;;;;;1798664;77;26298;-48
2022/11/01 07:00:46;;;;;;;0.53;0.53;;;;;;;;;;1806888;77;26318;-55
2022/11/01 07:03:14;;;;;;;0.60;0.60;;;;;;;;;;1793976;77;26631;-54
2022/11/01 07:05:42;;;;;;;0.68;0.68;;;;;;;;;;1794902;77;26376;-54
2022/11/01 07:08:11;;;;;;;0.60;0.60;;;;;;;;;;1787649;77;26317;-52
2022/11/01 07:10:40;;;;;;;0.60;0.60;;;;;;;;;;1802591;77;25662;-49
2022/11/01 07:13:09;;;;;;;0.62;0.62;;;;;;;;;;1807939;77;26290;-56
2022/11/01 07:15:36;;;;;;;0.60;0.60;;;;;;;;;;1806554;77;26211;-52
2022/11/01 07:18:04;;;;;;;0.80;0.80;;;;;;;;;;1794812;77;26829;-51
2022/11/01 07:20:40;;;;;;;0.70;0.70;;;;;;;;;;1790007;77;26293;-53
2022/11/01 07:23:05;;;;;;;0.60;0.60;;;;;;;;;;1803976;77;26318;-53
2022/11/01 07:25:32;;;;;;;0.70;0.70;;;;;;;;;;1802888;77;26274;-48
2022/11/01 07:28:00;;;;;;;0.70;0.70;;;;;;;;;;1791862;77;26272;-55
2022/11/01 07:30:27;;;;;;;0.80;0.80;;;;;;;;;;1792151;77;26651;-48
2022/11/01 07:32:56;;;;;;;0.55;0.55;;;;;;;;;;1800337;77;26309;-51
2022/11/01 07:35:24;;;;;;;0.60;0.60;;;;;;;;;;1806179;77;26278;-50
2022/11/01 07:37:51;;;;;;;0.75;0.75;;;;;;;;;;1793617;77;26247;-51
2022/11/01 07:40:19;;;;;;;0.60;0.60;;;;;;;;;;1805070;77;26987;-57
2022/11/01 07:42:46;;;;;;;0.50;0.50;;;;;;;;;;1800596;77;26239;-51
2022/11/01 07:45:14;;;;;;;0.60;0.60;;;;;;;;;;1801494;77;26302;-51
2022/11/01 07:47:41;;;;;;;0.60;0.60;;;;;;;;;;1817118;77;26793;-51
2022/11/01 07:50:09;;;;;;;0.70;0.70;;;;;;;;;;1788800;77;26348;-48
2022/11/01 07:52:36;;;;;;;0.70;0.70;;;;;;;;;;1809202;77;26289;-55
2022/11/01 07:55:03;;;;;;;0.70;0.70;;;;;;;;;;1800028;77;26288;-51
2022/11/01 07:57:31;;;;;;;0.80;0.80;;;;;;;;;;1797366;77;25361;-52
2022/11/01 07:59:58;;;;;;;0.70;0.70;;;;;;;;;;1816873;77;26290;-49
2022/11/01 08:02:26;;;;;;;0.60;0.60;;;;;;;;;;1805910;77;26313;-52
2022/11/01 08:04:53;;;;;;;0.50;0.50;;;;;;;;;;1809899;77;26337;-51
2022/11/01 08:07:20;;;;;;;0.50;0.50;;;;;;;;;;1818223;77;27541;-49
2022/11/01 08:09:48;;;;;;;0.60;0.60;;;;;;;;;;1809609;77;26785;-49
2022/11/01 08:12:15;;;;;;;0.60;0.60;;;;;;;;;;1825028;77;26320;-51
2022/11/01 08:14:42;;;;;;;0.60;0.60;;;;;;;;;;1823191;77;26279;-52
2022/11/01 08:17:09;;;;;;;0.50;0.50;;;;;;;;;;1823848;77;26262;-47
2022/11/01 08:19:37;;;;;;;0.50;0.50;;;;;;;;;;1817271;77;26378;-46
2022/11/01 08:22:04;;;;;;;0.40;0.40;;;;;;;;;;1826441;76;26285;-49
2022/11/01 08:24:31;;;;;;;0.50;0.50;;;;;;;;;;1821264;77;25353;-50
2022/11/01 08:26:58;;;;;;;0.50;0.50;;;;;;;;;;1818290;77;26265;-50
2022/11/01 08:29:26;;;;;;;0.50;0.50;;;;;;;;;;1822689;77;26268;-47
2022/11/01 08:31:53;;;;;;;0.50;0.50;;;;;;;;;;1823648;77;26266;-53
2022/11/01 08:34:20;;;;;;;0.50;0.50;;;;;;;;;;1825044;76;26253;-50
2022/11/01 08:36:47;;;;;;;0.50;0.50;;;;;;;;;;1827193;77;26237;-55
2022/11/01 08:39:15;;;;;;;0.50;0.50;;;;;;;;;;1813260;77;26880;-47
2022/11/01 08:41:42;;;;;;;0.50;0.50;;;;;;;;;;1823400;77;26828;-51
2022/11/01 08:44:09;;;;;;;0.47;0.47;;;;;;;;;;1826710;77;26632;-51
2022/11/01 08:46:36;;;;;;;0.55;0.55;;;;;;;;;;1827429;76;26218;-54
2022/11/01 08:49:04;;;;;;;0.53;0.53;;;;;;;;;;1827261;76;26303;-51
2022/11/01 08:51:31;;;;;;;0.40;0.40;;;;;;;;;;1861394;75;26718;-49
2022/11/01 08:53:59;;;;;;;0.40;0.40;;;;;;;;;;1822018;77;25240;-50
2022/11/01 08:56:26;;;;;;;0.50;0.50;;;;;;;;;;1823456;77;26224;-51
2022/11/01 08:58:54;;;;;;;0.60;0.60;;;;;;;;;;1814737;77;26246;-56
2022/11/01 09:01:25;;;;;;;0.47;0.47;;;;;;;;;;1826425;77;26733;-53
2022/11/01 09:04:00;;;;;;;0.40;0.40;;;;;;;;;;1814241;77;26497;-55
2022/11/01 09:06:27;;;;;;;0.50;0.50;;;;;;;;;;1822491;77;26652;-54
2022/11/01 09:08:55;;;;;;;0.57;0.57;;;;;;;;;;1823890;77;25746;-54
2022/11/01 09:11:23;;;;;;;0.40;0.40;;;;;;;;;;1816991;78;26230;-47
2022/11/01 09:13:56;;;;;;;0.53;0.53;;;;;;;;;;1819958;77;25740;-49
2022/11/01 09:16:20;;;;;;;0.50;0.50;;;;;;;;;;1823777;77;26909;-54
2022/11/01 09:18:47;;;;;;;0.40;0.40;;;;;;;;;;1815815;77;26756;-53
2022/11/01 09:21:15;;;;;;;0.60;0.60;;;;;;;;;;1824103;77;25494;-50
2022/11/01 09:23:44;;;;;;;0.50;0.50;;;;;;;;;;1818228;77;26662;-49
2022/11/01 09:26:12;;;;;;;0.60;0.60;;;;;;;;;;1830749;77;26734;-49
2022/11/01 09:28:40;;;;;;;0.50;0.50;;;;;;;;;;1828293;77;25879;-49
2022/11/01 09:31:09;;;;;;;0.50;0.50;;;;;;;;;;1829720;77;26183;-47
2022/11/01 09:33:36;;;;;;;0.60;0.60;;;;;;;;;;1828639;77;26287;-46
2022/11/01 09:36:04;;;;;;;0.40;0.40;;;;;;;;;;1822353;77;26254;-50
2022/11/01 09:38:31;;;;;;;0.47;0.47;;;;;;;;;;1847673;76;26287;-53
2022/11/01 09:41:03;;;;;;;0.47;0.47;;;;;;;;;;1857785;76;26306;-49
2022/11/01 09:43:32;;;;;;;0.40;0.40;;;;;;;;;;1842149;76;25692;-48
2022/11/01 09:46:01;;;;;;;0.57;0.57;;;;;;;;;;1846094;76;26348;-47
2022/11/01 09:48:29;;;;;;;0.57;0.57;;;;;;;;;;1841913;76;26282;-47
2022/11/01 09:50:57;;;;;;;0.50;0.50;;;;;;;;;;1826633;76;26837;-54
2022/11/01 09:53:25;;;;;;;0.60;0.60;;;;;;;;;;1834393;77;26346;-51
2022/11/01 09:55:54;;;;;;;0.50;0.50;;;;;;;;;;1818482;76;27205;-50
2022/11/01 09:58:23;;;;;;;0.42;0.42;;;;;;;;;;1819750;76;26542;-51
2022/11/01 10:00:52;;;;;;;0.47;0.47;;;;;;;;;;1812411;76;26325;-52
2022/11/01 10:03:33;;;;;;;0.50;0.50;;;;;;;;;;1817783;76;26250;-51
2022/11/01 10:06:02;;;;;;;0.55;0.55;;;;;;;;;;1810661;76;26360;-52
2022/11/01 10:08:49;;;;;;;0.40;0.40;;;;;;;;;;1813723;76;26277;-49
2022/11/01 10:11:24;;;;;;;0.40;0.40;;;;;;;;;;1822683;76;26273;-51
2022/11/01 10:14:09;;;;;;;0.60;0.60;;;;;;;;;;1823496;76;26392;-48
2022/11/01 10:16:43;;;;;;;0.50;0.50;;;;;;;;;;1817728;76;26786;-56
2022/11/01 10:19:13;;;;;;;0.60;0.60;;;;;;;;;;1814693;76;25635;-55
2022/11/01 10:21:43;;;;;;;0.53;0.53;;;;;;;;;;1820148;76;26289;-51
2022/11/01 10:24:12;;;;;;;0.60;0.60;;;;;;;;;;1807265;76;26281;-48
2022/11/01 10:26:43;;;;;;;0.53;0.53;;;;;;;;;;1815771;76;26290;-49
2022/11/01 10:29:11;;;;;;;0.50;0.50;;;;;;;;;;1810415;76;26269;-48
2022/11/01 10:31:46;;;;;;;0.60;0.60;;;;;;;;;;1816683;76;26320;-49
2022/11/01 10:34:27;;;;;;;0.50;0.50;;;;;;;;;;1822149;77;26309;-51
2022/11/01 10:36:55;;;;;;;0.50;0.50;;;;;;;;;;1817331;76;26306;-51
2022/11/01 10:39:33;;;;;;;0.60;0.60;;;;;;;;;;1819597;76;25729;-51
2022/11/01 10:42:02;;;;;;;0.70;0.70;;;;;;;;;;1818506;76;26261;-52
2022/11/01 10:44:31;;;;;;;0.50;0.50;;;;;;;;;;1815478;76;26215;-51
2022/11/01 10:46:59;;;;;;;0.60;0.60;;;;;;;;;;1818156;77;26293;-54
2022/11/01 10:49:31;;;;;;;0.60;0.60;;;;;;;;;;1816493;76;26332;-53
2022/11/01 10:52:00;;;;;;;0.70;0.70;;;;;;;;;;1807848;76;26288;-53
2022/11/01 10:54:28;;;;;;;0.50;0.50;;;;;;;;;;1811023;76;26277;-51
2022/11/01 10:56:57;;;;;;;0.60;0.60;;;;;;;;;;1818460;76;26250;-51
2022/11/01 10:59:26;;;;;;;0.60;0.60;;;;;;;;;;1820872;77;26378;-52
2022/11/01 11:01:54;;;;;;;0.70;0.70;;;;;;;;;;1828029;76;26648;-50
2022/11/01 11:04:23;;;;;;;0.70;0.70;;;;;;;;;;1818606;77;26286;-55
2022/11/01 11:06:51;;;;;;;0.70;0.70;;;;;;;;;;1816624;77;25783;-50
2022/11/01 11:09:26;;;;;;;0.80;0.80;;;;;;;;;;1823388;76;26258;-48
2022/11/01 11:11:55;;;;;;;0.65;0.65;;;;;;;;;;1823764;76;26301;-52
2022/11/01 11:14:24;;;;;;;0.68;0.68;;;;;;;;;;1819097;76;26387;-49
2022/11/01 11:16:55;;;;;;;0.60;0.60;;;;;;;;;;1814952;77;26273;-51
2022/11/01 11:19:24;;;;;;;0.70;0.70;;;;;;;;;;1821072;76;26258;-50
2022/11/01 11:21:53;;;;;;;0.53;0.53;;;;;;;;;;1824899;77;26716;-55
2022/11/01 11:24:22;;;;;;;0.75;0.75;;;;;;;;;;1820086;77;26371;-53
2022/11/01 11:26:51;;;;;;;0.68;0.68;;;;;;;;;;1810398;77;25565;-51
2022/11/01 11:29:22;;;;;;;0.60;0.60;;;;;;;;;;1817162;76;26293;-49
2022/11/01 11:31:52;;;;;;;0.75;0.75;;;;;;;;;;1821177;76;26261;-48
2022/11/01 11:34:24;;;;;;;0.53;0.53;;;;;;;;;;1821022;76;26289;-51
2022/11/01 11:36:53;;;;;;;0.60;0.60;;;;;;;;;;1821715;76;26266;-52
2022/11/01 11:39:25;;;;;;;0.68;0.68;;;;;;;;;;1820102;76;26792;-54
2022/11/01 11:41:53;;;;;;;0.65;0.65;;;;;;;;;;1822632;77;26274;-57
2022/11/01 11:44:37;;;;;;;0.72;0.62;;;;;;;;;;1813310;76;26356;-51
2022/11/01 11:47:04;;;;;;;0.60;0.60;;;;;;;;;;1817503;77;26284;-54
2022/11/01 11:49:31;;;;;;;0.68;0.68;;;;;;;;;;1817811;76;26705;-51
2022/11/01 11:51:58;;;;;;;0.82;0.82;;;;;;;;;;1822512;77;27482;-50
2022/11/01 11:54:34;;;;;;;0.70;0.70;;;;;;;;;;1823631;77;26283;-52
2022/11/01 11:57:06;;;;;;;0.53;0.53;;;;;;;;;;1816941;76;26744;-50
2022/11/01 11:59:34;;;;;;;0.70;0.70;;;;;;;;;;1818390;77;26250;-53
2022/11/01 12:02:03;;;;;;;0.53;0.53;;;;;;;;;;1813982;77;26328;-52
2022/11/01 12:04:40;;;;;;;0.50;0.50;;;;;;;;;;1816854;77;26234;-57
2022/11/01 12:07:10;;;;;;;0.70;0.70;;;;;;;;;;1820902;77;26755;-53
2022/11/01 12:09:39;;;;;;;0.60;0.60;;;;;;;;;;1819683;77;26391;-56
2022/11/01 12:12:07;;;;;;;0.55;0.55;;;;;;;;;;1826867;77;25619;-50
2022/11/01 12:14:36;;;;;;;0.50;0.50;;;;;;;;;;1812405;77;26314;-48
2022/11/01 12:17:05;;;;;;;0.55;0.55;;;;;;;;;;1827225;77;26832;-49
2022/11/01 12:19:32;;;;;;;0.50;0.50;;;;;;;;;;1823661;77;27879;-49
2022/11/01 12:22:01;;;;;;;0.60;0.60;;;;;;;;;;1829707;77;26648;-55
2022/11/01 12:24:29;;;;;;;0.57;0.57;;;;;;;;;;1838871;77;26264;-50
2022/11/01 12:27:00;;;;;;;0.60;0.60;;;;;;;;;;1828328;77;26261;-53
2022/11/01 12:29:34;;;;;;;0.45;0.45;;;;;;;;;;1818601;77;26332;-50
2022/11/01 12:32:13;;;;;;;0.60;0.60;;;;;;;;;;1831057;77;26320;-52
2022/11/01 12:34:42;;;;;;;0.50;0.50;;;;;;;;;;1825126;76;26395;-50
2022/11/01 12:37:16;;;;;;;0.60;0.60;;;;;;;;;;1824232;77;26343;-49
2022/11/01 12:39:54;;;;;;;0.42;0.42;;;;;;;;;;1822280;77;26573;-50
2022/11/01 12:42:29;;;;;;;0.53;0.53;;;;;;;;;;1825107;77;26270;-53
2022/11/01 12:45:01;;;;;;;0.50;0.50;;;;;;;;;;1825036;77;26346;-53
2022/11/01 12:47:34;;;;;;;0.60;0.60;;;;;;;;;;1828222;77;26258;-50
2022/11/01 12:50:06;;;;;;;0.50;0.50;;;;;;;;;;1823419;77;26286;-52
2022/11/01 12:52:41;;;;;;;0.40;0.40;;;;;;;;;;1836947;76;27528;-49
2022/11/01 12:55:10;;;;;;;0.30;0.30;;;;;;;;;;1839178;76;27116;-53
2022/11/01 12:57:38;;;;;;;0.50;0.50;;;;;;;;;;1845709;76;26307;-50
2022/11/01 13:00:06;;;;;;;0.42;0.42;;;;;;;;;;1848245;76;26755;-53
2022/11/01 13:02:52;;;;;;;0.60;0.60;;;;;;;;;;1856226;75;26304;-54
2022/11/01 13:05:21;;;;;;;0.42;0.42;;;;;;;;;;1847630;75;27401;-50
2022/11/01 13:07:56;;;;;;;0.50;0.50;;;;;;;;;;1855688;75;26203;-53
2022/11/01 13:10:31;;;;;;;0.35;0.35;;;;;;;;;;1851767;75;26323;-51
2022/11/01 13:13:00;;;;;;;0.40;0.40;;;;;;;;;;1845134;75;26297;-54
2022/11/01 13:15:29;;;;;;;0.50;0.50;;;;;;;;;;1845356;75;26278;-51
2022/11/01 13:18:05;;;;;;;0.37;0.37;;;;;;;;;;1859607;75;26377;-55
2022/11/01 13:20:39;;;;;;;0.50;0.50;;;;;;;;;;1859194;75;26324;-53
2022/11/01 13:23:17;;;;;;;0.50;0.50;;;;;;;;;;1863961;75;26594;-52
2022/11/01 13:25:45;;;;;;;0.50;0.50;;;;;;;;;;1854318;75;26275;-48
2022/11/01 13:28:23;;;;;;;0.40;0.40;;;;;;;;;;1852480;75;26300;-54
2022/11/01 13:30:55;;;;;;;0.50;0.50;;;;;;;;;;1855608;75;26904;-53
2022/11/01 13:33:36;;;;;;;0.30;0.30;;;;;;;;;;1845021;75;26277;-54
2022/11/01 13:36:05;;;;;;;0.40;0.40;;;;;;;;;;1849509;75;26268;-52
2022/11/01 13:38:40;;;;;;;0.40;0.40;;;;;;;;;;1819396;77;26733;-55
2022/11/01 13:41:23;;;;;;;0.40;0.40;;;;;;;;;;1820915;77;26288;-53
2022/11/01 13:43:52;;;;;;;0.40;0.40;;;;;;;;;;1814921;77;26296;-49
2022/11/01 13:46:21;;;;;;;0.40;0.40;;;;;;;;;;1820313;77;26303;-50
2022/11/01 13:49:06;;;;;;;0.40;0.40;;;;;;;;;;1807657;77;25802;-55
2022/11/01 13:51:38;;;;;;;0.30;0.30;;;;;;;;;;1809152;77;26324;-51
2022/11/01 13:54:10;;;;;;;0.37;0.37;;;;;;;;;;1794587;77;26243;-52
2022/11/01 13:56:42;;;;;;;0.40;0.40;;;;;;;;;;1802443;77;26242;-53
2022/11/01 13:59:13;;;;;;;0.50;0.50;;;;;;;;;;1835670;76;26284;-51
2022/11/01 14:01:41;;;;;;;0.40;0.40;;;;;;;;;;1804748;77;26231;-49
2022/11/01 14:04:12;;;;;;;0.40;0.40;;;;;;;;;;1800591;77;26249;-54
2022/11/01 14:06:41;;;;;;;0.40;0.40;;;;;;;;;;1802119;77;26234;-49
2022/11/01 14:09:25;;;;;;;0.50;0.50;;;;;;;;;;1802359;77;26225;-51
2022/11/01 14:11:56;;;;;;;0.50;0.50;;;;;;;;;;1853729;76;26307;-51
2022/11/01 14:14:31;;;;;;;0.50;0.50;;;;;;;;;;1837529;76;26367;-49
2022/11/01 14:17:17;;;;;;;0.50;0.50;;;;;;;;;;1846949;76;26275;-52
2022/11/01 14:19:48;;;;;;;0.40;0.40;;;;;;;;;;1832136;76;26287;-47
2022/11/01 14:22:23;;;;;;;0.40;0.40;;;;;;;;;;1850483;76;26273;-48
2022/11/01 14:24:55;;;;;;;0.40;0.40;;;;;;;;;;1839449;76;26255;-50
2022/11/01 14:27:29;;;;;;;0.40;0.40;;;;;;;;;;1847314;76;26727;-48
2022/11/01 14:29:56;;;;;;;0.40;0.40;;;;;;;;;;1846377;76;26248;-53
2022/11/01 14:32:25;;;;;;;0.50;0.50;;;;;;;;;;1839475;76;26243;-54
2022/11/01 14:35:03;;;;;;;0.40;0.40;;;;;;;;;;1844814;76;25707;-54
2022/11/01 14:37:31;;;;;;;0.40;0.40;;;;;;;;;;1838180;76;26814;-55
2022/11/01 14:40:00;;;;;;;0.40;0.40;;;;;;;;;;1847423;76;26279;-52
2022/11/01 14:42:29;;;;;;;0.40;0.40;;;;;;;;;;1836575;76;26362;-54
2022/11/01 14:44:58;;;;;;;0.40;0.40;;;;;;;;;;1834607;76;26262;-51
2022/11/01 14:47:33;;;;;;;0.50;0.50;;;;;;;;;;1843608;76;26292;-49
2022/11/01 14:50:02;;;;;;;0.55;0.55;;;;;;;;;;1829357;76;26676;-52
2022/11/01 14:52:34;;;;;;;0.55;0.55;;;;;;;;;;1822486;76;26816;-51
2022/11/01 14:55:07;;;;;;;0.50;0.50;;;;;;;;;;1816824;76;26316;-52
2022/11/01 14:57:35;;;;;;;0.50;0.50;;;;;;;;;;1743907;79;26305;-54
2022/11/01 15:00:21;;;;;;;0.40;0.40;;;;;;;;;;1813885;76;26269;-50
2022/11/01 15:02:49;;;;;;;0.37;0.37;;;;;;;;;;1816920;76;26324;-50
2022/11/01 15:05:17;;;;;;;0.70;0.70;;;;;;;;;;1809293;77;26828;-52